createdAt,value
2018-07-11T00:00:49.057Z,1010.48
2018-07-11T00:01:49.039Z,1010.44
2018-07-11T00:02:49.023Z,1010.43
2018-07-11T00:03:49.007Z,1010.44
2018-07-11T00:04:48.992Z,1010.39
2018-07-11T00:05:48.977Z,1010.37
2018-07-11T00:06:48.962Z,1010.32
2018-07-11T00:07:48.944Z,1010.33
2018-07-11T00:08:48.931Z,1010.28
2018-07-11T00:09:48.914Z,1010.30
2018-07-11T00:10:48.900Z,1010.26
2018-07-11T00:11:48.887Z,1010.25
2018-07-11T00:12:48.868Z,1010.25
2018-07-11T00:13:48.854Z,1010.24
2018-07-11T00:14:48.838Z,1010.26
2018-07-11T00:15:48.822Z,1010.24
2018-07-11T00:16:48.806Z,1010.24
2018-07-11T00:17:48.790Z,1010.23
2018-07-11T00:18:48.777Z,1010.18
2018-07-11T00:19:48.760Z,1010.15
2018-07-11T00:20:48.750Z,1010.19
2018-07-11T00:21:48.727Z,1010.18
2018-07-11T00:22:48.713Z,1010.19
2018-07-11T00:23:48.699Z,1010.18
2018-07-11T00:24:48.681Z,1010.18
2018-07-11T00:25:48.665Z,1010.19
2018-07-11T00:26:48.651Z,1010.18
2018-07-11T00:27:48.640Z,1010.21
2018-07-11T00:28:48.620Z,1010.21
2018-07-11T00:29:48.611Z,1010.28
2018-07-11T00:30:48.589Z,1010.26
2018-07-11T00:31:48.571Z,1010.25
2018-07-11T00:32:48.556Z,1010.23
2018-07-11T00:33:48.540Z,1010.29
2018-07-11T00:34:48.524Z,1010.29
2018-07-11T00:35:48.510Z,1010.29
2018-07-11T00:36:48.493Z,1010.27
2018-07-11T00:37:48.478Z,1010.27
2018-07-11T00:38:48.464Z,1010.27
2018-07-11T00:39:48.448Z,1010.24
2018-07-11T00:40:48.434Z,1010.23
2018-07-11T00:41:48.417Z,1010.22
2018-07-11T00:42:48.400Z,1010.21
2018-07-11T00:43:48.386Z,1010.21
2018-07-11T00:44:48.375Z,1010.24
2018-07-11T00:45:48.365Z,1010.25
2018-07-11T00:46:48.338Z,1010.24
2018-07-11T00:47:48.323Z,1010.29
2018-07-11T00:48:48.310Z,1010.34
2018-07-11T00:49:48.294Z,1010.36
2018-07-11T00:50:48.282Z,1010.35
2018-07-11T00:51:48.262Z,1010.34
2018-07-11T00:52:48.244Z,1010.31
2018-07-11T00:53:48.235Z,1010.30
2018-07-11T00:54:48.221Z,1010.28
2018-07-11T00:55:48.201Z,1010.25
2018-07-11T00:56:48.202Z,1010.23
2018-07-11T00:57:48.165Z,1010.18
2018-07-11T00:58:48.152Z,1010.14
2018-07-11T00:59:48.136Z,1010.11
2018-07-11T01:00:48.122Z,1010.13
2018-07-11T01:01:48.104Z,1010.05
2018-07-11T01:02:48.088Z,1010.07
2018-07-11T01:03:48.078Z,1010.01
2018-07-11T01:04:48.058Z,1010.00
2018-07-11T01:05:48.041Z,1009.98
2018-07-11T01:06:48.037Z,1009.99
2018-07-11T01:07:48.010Z,1009.93
2018-07-11T01:08:47.997Z,1009.92
2018-07-11T01:09:47.979Z,1009.94
2018-07-11T01:10:47.964Z,1009.93
2018-07-11T01:11:47.949Z,1009.96
2018-07-11T01:12:47.931Z,1010.00
2018-07-11T01:13:47.915Z,1009.95
2018-07-11T01:14:47.900Z,1010.00
2018-07-11T01:15:47.888Z,1009.98
2018-07-11T01:16:47.870Z,1010.04
2018-07-11T01:17:47.852Z,1010.01
2018-07-11T01:18:47.847Z,1010.05
2018-07-11T01:19:47.825Z,1010.04
2018-07-11T01:20:47.808Z,1010.08
2018-07-11T01:21:47.790Z,1010.08
2018-07-11T01:22:47.768Z,1010.06
2018-07-11T01:23:47.761Z,1010.08
2018-07-11T01:24:47.745Z,1010.10
2018-07-11T01:25:47.733Z,1010.12
2018-07-11T01:26:47.714Z,1010.13
2018-07-11T01:27:47.698Z,1010.07
2018-07-11T01:28:47.686Z,1010.09
2018-07-11T01:29:47.667Z,1010.10
2018-07-11T01:30:47.655Z,1010.05
2018-07-11T01:31:47.640Z,1010.03
2018-07-11T01:32:47.620Z,1010.04
2018-07-11T01:33:47.606Z,1010.03
2018-07-11T01:34:47.591Z,1009.96
2018-07-11T01:35:47.584Z,1009.95
2018-07-11T01:36:47.563Z,1009.93
2018-07-11T01:37:47.542Z,1009.96
2018-07-11T01:38:47.528Z,1009.96
2018-07-11T01:39:47.513Z,1009.96
2018-07-11T01:40:47.497Z,1009.95
2018-07-11T01:41:47.482Z,1009.91
2018-07-11T01:42:47.465Z,1009.90
2018-07-11T01:43:47.451Z,1009.90
2018-07-11T01:44:47.436Z,1009.88
2018-07-11T01:45:47.423Z,1009.89
2018-07-11T01:46:47.405Z,1009.86
2018-07-11T01:47:47.388Z,1009.84
2018-07-11T01:48:47.372Z,1009.85
2018-07-11T01:49:47.356Z,1009.85
2018-07-11T01:50:47.340Z,1009.86
2018-07-11T01:51:47.326Z,1009.89
2018-07-11T01:52:47.310Z,1009.86
2018-07-11T01:53:47.293Z,1009.85
2018-07-11T01:54:47.283Z,1009.83
2018-07-11T01:55:47.264Z,1009.88
2018-07-11T01:56:47.249Z,1009.84
2018-07-11T01:57:47.234Z,1009.83
2018-07-11T01:58:47.218Z,1009.83
2018-07-11T01:59:47.202Z,1009.82
2018-07-11T02:00:47.187Z,1009.83
2018-07-11T02:01:47.170Z,1009.86
2018-07-11T02:02:47.155Z,1009.85
2018-07-11T02:03:47.144Z,1009.89
2018-07-11T02:04:47.127Z,1009.89
2018-07-11T02:05:47.116Z,1009.94
2018-07-11T02:06:47.094Z,1009.97
2018-07-11T02:07:47.080Z,1010.00
2018-07-11T02:08:47.062Z,1010.02
2018-07-11T02:09:47.052Z,1010.02
2018-07-11T02:10:47.034Z,1009.99
2018-07-11T02:11:47.019Z,1009.98
2018-07-11T02:12:47.003Z,1009.96
2018-07-11T02:13:46.987Z,1009.98
2018-07-11T02:14:46.972Z,1009.97
2018-07-11T02:15:46.957Z,1010.01
2018-07-11T02:16:46.945Z,1009.97
2018-07-11T02:17:46.926Z,1009.99
2018-07-11T02:18:46.910Z,1010.01
2018-07-11T02:19:46.895Z,1010.01
2018-07-11T02:20:46.879Z,1010.02
2018-07-11T02:21:46.867Z,1010.03
2018-07-11T02:22:46.848Z,1010.03
2018-07-11T02:23:46.836Z,1010.05
2018-07-11T02:24:46.819Z,1010.05
2018-07-11T02:25:46.805Z,1010.02
2018-07-11T02:26:46.790Z,1010.04
2018-07-11T02:27:46.774Z,1009.98
2018-07-11T02:28:46.758Z,1009.96
2018-07-11T02:29:46.742Z,1009.99
2018-07-11T02:30:46.728Z,1009.98
2018-07-11T02:31:46.713Z,1009.95
2018-07-11T02:32:46.699Z,1009.94
2018-07-11T02:33:46.685Z,1009.98
2018-07-11T02:34:46.666Z,1009.97
2018-07-11T02:35:46.652Z,1009.95
2018-07-11T02:36:46.634Z,1009.99
2018-07-11T02:37:46.621Z,1010.00
2018-07-11T02:38:46.605Z,1009.96
2018-07-11T02:39:46.590Z,1009.94
2018-07-11T02:40:46.578Z,1009.94
2018-07-11T02:41:46.559Z,1009.90
2018-07-11T02:42:46.541Z,1009.86
2018-07-11T02:43:46.532Z,1009.85
2018-07-11T02:44:46.515Z,1009.81
2018-07-11T02:45:46.498Z,1009.75
2018-07-11T02:46:46.483Z,1009.76
2018-07-11T02:47:46.468Z,1009.73
2018-07-11T02:48:46.451Z,1009.68
2018-07-11T02:49:46.436Z,1009.70
2018-07-11T02:50:46.423Z,1009.70
2018-07-11T02:51:46.406Z,1009.70
2018-07-11T02:52:46.391Z,1009.74
2018-07-11T02:53:46.375Z,1009.76
2018-07-11T02:54:46.359Z,1009.80
2018-07-11T02:55:46.344Z,1009.85
2018-07-11T02:56:46.328Z,1009.87
2018-07-11T02:57:46.312Z,1009.89
2018-07-11T02:58:46.301Z,1009.92
2018-07-11T02:59:46.286Z,1009.93
2018-07-11T03:00:46.269Z,1009.96
2018-07-11T03:01:46.255Z,1009.94
2018-07-11T03:02:46.237Z,1009.99
2018-07-11T03:03:46.223Z,1009.99
2018-07-11T03:04:46.206Z,1009.97
2018-07-11T03:05:46.191Z,1010.03
2018-07-11T03:06:46.181Z,1010.02
2018-07-11T03:07:46.163Z,1010.04
2018-07-11T03:08:46.149Z,1009.99
2018-07-11T03:09:46.133Z,1010.06
2018-07-11T03:10:46.116Z,1010.04
2018-07-11T03:11:46.098Z,1010.03
2018-07-11T03:12:46.091Z,1010.02
2018-07-11T03:13:46.069Z,1009.98
2018-07-11T03:14:46.053Z,1009.95
2018-07-11T03:15:46.041Z,1009.93
2018-07-11T03:16:46.025Z,1009.96
2018-07-11T03:17:46.009Z,1009.97
2018-07-11T03:18:45.996Z,1009.98
2018-07-11T03:19:45.978Z,1009.96
2018-07-11T03:20:45.965Z,1009.94
2018-07-11T03:21:45.946Z,1009.97
2018-07-11T03:22:45.932Z,1009.94
2018-07-11T03:23:45.917Z,1009.94
2018-07-11T03:24:45.900Z,1009.97
2018-07-11T03:25:45.885Z,1009.99
2018-07-11T03:26:45.873Z,1010.02
2018-07-11T03:27:45.856Z,1010.07
2018-07-11T03:28:45.845Z,1010.04
2018-07-11T03:29:45.825Z,1010.08
2018-07-11T03:30:45.811Z,1010.06
2018-07-11T03:31:45.796Z,1010.08
2018-07-11T03:32:45.780Z,1010.07
2018-07-11T03:33:45.766Z,1010.05
2018-07-11T03:34:45.748Z,1010.07
2018-07-11T03:35:45.733Z,1010.06
2018-07-11T03:36:45.723Z,1010.08
2018-07-11T03:37:45.706Z,1010.09
2018-07-11T03:38:45.690Z,1010.11
2018-07-11T03:39:45.675Z,1010.09
2018-07-11T03:40:45.662Z,1010.08
2018-07-11T03:41:45.648Z,1010.09
2018-07-11T03:42:45.629Z,1010.12
2018-07-11T03:43:45.613Z,1010.10
2018-07-11T03:44:45.598Z,1010.12
2018-07-11T03:45:45.589Z,1010.13
2018-07-11T03:46:45.569Z,1010.10
2018-07-11T03:47:45.556Z,1010.14
2018-07-11T03:48:45.538Z,1010.16
2018-07-11T03:49:45.523Z,1010.15
2018-07-11T03:50:45.509Z,1010.17
2018-07-11T03:51:45.497Z,1010.20
2018-07-11T03:52:45.478Z,1010.18
2018-07-11T03:53:45.482Z,1010.18
2018-07-11T03:54:45.451Z,1010.22
2018-07-11T03:55:45.432Z,1010.21
2018-07-11T03:56:45.418Z,1010.21
2018-07-11T03:57:45.404Z,1010.21
2018-07-11T03:58:45.388Z,1010.20
2018-07-11T03:59:45.373Z,1010.25
2018-07-11T04:00:45.363Z,1010.24
2018-07-11T04:01:45.343Z,1010.23
2018-07-11T04:02:45.328Z,1010.24
2018-07-11T04:03:45.316Z,1010.25
2018-07-11T04:04:45.335Z,1010.28
2018-07-11T04:05:45.283Z,1010.27
2018-07-11T04:06:45.271Z,1010.24
2018-07-11T04:07:45.259Z,1010.25
2018-07-11T04:08:45.238Z,1010.24
2018-07-11T04:09:45.222Z,1010.26
2018-07-11T04:10:45.207Z,1010.26
2018-07-11T04:11:45.193Z,1010.25
2018-07-11T04:12:45.177Z,1010.29
2018-07-11T04:13:45.166Z,1010.29
2018-07-11T04:14:45.149Z,1010.26
2018-07-11T04:15:45.140Z,1010.27
2018-07-11T04:16:45.117Z,1010.26
2018-07-11T04:17:45.111Z,1010.25
2018-07-11T04:18:45.089Z,1010.23
2018-07-11T04:19:45.078Z,1010.18
2018-07-11T04:20:45.063Z,1010.18
2018-07-11T04:21:45.046Z,1010.22
2018-07-11T04:22:45.028Z,1010.25
2018-07-11T04:23:45.022Z,1010.22
2018-07-11T04:24:44.997Z,1010.25
2018-07-11T04:25:44.984Z,1010.23
2018-07-11T04:26:44.968Z,1010.24
2018-07-11T04:27:44.955Z,1010.25
2018-07-11T04:28:44.991Z,1010.22
2018-07-11T04:29:44.920Z,1010.22
2018-07-11T04:30:44.907Z,1010.24
2018-07-11T04:31:44.893Z,1010.21
2018-07-11T04:32:44.879Z,1010.17
2018-07-11T04:33:44.863Z,1010.20
2018-07-11T04:34:44.931Z,1010.19
2018-07-11T04:35:44.833Z,1010.19
2018-07-11T04:36:44.819Z,1010.25
2018-07-11T04:37:44.803Z,1010.24
2018-07-11T04:38:44.792Z,1010.23
2018-07-11T04:39:44.774Z,1010.26
2018-07-11T04:40:44.758Z,1010.27
2018-07-11T04:41:44.748Z,1010.27
2018-07-11T04:42:44.729Z,1010.29
2018-07-11T04:43:44.715Z,1010.28
2018-07-11T04:44:44.703Z,1010.27
2018-07-11T04:45:44.684Z,1010.27
2018-07-11T04:46:44.676Z,1010.29
2018-07-11T04:47:44.665Z,1010.31
2018-07-11T04:48:44.641Z,1010.29
2018-07-11T04:49:44.625Z,1010.32
2018-07-11T04:50:44.614Z,1010.33
2018-07-11T04:51:44.596Z,1010.30
2018-07-11T04:52:44.619Z,1010.24
2018-07-11T04:53:44.568Z,1010.26
2018-07-11T04:54:44.552Z,1010.28
2018-07-11T04:55:44.537Z,1010.27
2018-07-11T04:56:44.521Z,1010.26
2018-07-11T04:57:44.508Z,1010.26
2018-07-11T04:58:44.538Z,1010.26
2018-07-11T04:59:44.481Z,1010.25
2018-07-11T05:00:44.463Z,1010.24
2018-07-11T05:01:44.448Z,1010.28
2018-07-11T05:02:44.432Z,1010.25
2018-07-11T05:03:44.419Z,1010.30
2018-07-11T05:04:44.411Z,1010.30
2018-07-11T05:05:44.389Z,1010.32
2018-07-11T05:06:44.374Z,1010.32
2018-07-11T05:07:44.361Z,1010.32
2018-07-11T05:08:44.346Z,1010.35
2018-07-11T05:09:44.332Z,1010.35
2018-07-11T05:10:44.360Z,1010.32
2018-07-11T05:11:44.303Z,1010.31
2018-07-11T05:12:44.289Z,1010.30
2018-07-11T05:13:44.273Z,1010.34
2018-07-11T05:14:44.259Z,1010.35
2018-07-11T05:15:44.246Z,1010.31
2018-07-11T05:16:44.231Z,1010.25
2018-07-11T05:17:44.217Z,1010.23
2018-07-11T05:18:44.205Z,1010.20
2018-07-11T05:19:44.192Z,1010.20
2018-07-11T05:20:44.174Z,1010.20
2018-07-11T05:21:44.162Z,1010.21
2018-07-11T05:22:44.145Z,1010.22
2018-07-11T05:23:44.131Z,1010.18
2018-07-11T05:24:44.119Z,1010.20
2018-07-11T05:25:44.100Z,1010.17
2018-07-11T05:26:44.088Z,1010.16
2018-07-11T05:27:44.119Z,1010.17
2018-07-11T05:28:44.061Z,1010.18
2018-07-11T05:29:44.046Z,1010.23
2018-07-11T05:30:44.035Z,1010.22
2018-07-11T05:34:27.290Z,1010.29
2018-07-11T05:35:27.259Z,1010.24
2018-07-11T05:36:27.310Z,1010.25
2018-07-11T05:37:27.228Z,1010.22
2018-07-11T05:38:27.213Z,1010.22
2018-07-11T05:39:27.203Z,1010.25
2018-07-11T05:40:27.187Z,1010.25
2018-07-11T05:41:27.171Z,1010.27
2018-07-11T05:45:10.411Z,1010.31
2018-07-11T05:46:10.408Z,1010.37
2018-07-11T05:47:10.383Z,1010.36
2018-07-11T05:48:10.416Z,1010.37
2018-07-11T05:49:10.354Z,1010.34
2018-07-11T05:50:10.345Z,1010.36
2018-07-11T05:51:10.327Z,1010.36
2018-07-11T05:52:10.319Z,1010.30
2018-07-11T05:53:10.296Z,1010.34
2018-07-11T05:54:10.286Z,1010.31
2018-07-11T05:55:10.272Z,1010.30
2018-07-11T05:56:10.260Z,1010.29
2018-07-11T05:57:10.243Z,1010.34
2018-07-11T05:58:10.231Z,1010.30
2018-07-11T05:59:10.215Z,1010.30
2018-07-11T06:00:10.207Z,1010.29
2018-07-11T06:01:10.186Z,1010.40
2018-07-11T06:02:10.173Z,1010.42
2018-07-11T06:03:10.163Z,1010.46
2018-07-11T06:04:10.150Z,1010.49
2018-07-11T06:05:10.132Z,1010.49
2018-07-11T06:06:10.120Z,1010.45
2018-07-11T06:07:10.105Z,1010.38
2018-07-11T06:08:10.290Z,1010.44
2018-07-11T06:09:10.078Z,1010.47
2018-07-11T06:10:10.064Z,1010.50
2018-07-11T06:11:10.053Z,1010.48
2018-07-11T06:12:10.038Z,1010.55
2018-07-11T06:13:10.024Z,1010.62
2018-07-11T06:14:10.010Z,1010.70
2018-07-11T06:15:10.001Z,1010.74
2018-07-11T06:16:09.986Z,1010.71
2018-07-11T06:17:09.970Z,1010.71
2018-07-11T06:18:09.956Z,1010.68
2018-07-11T06:19:09.944Z,1010.66
2018-07-11T06:20:09.988Z,1010.59
2018-07-11T06:21:09.918Z,1010.56
2018-07-11T06:22:09.909Z,1010.51
2018-07-11T06:23:09.891Z,1010.53
2018-07-11T06:24:09.879Z,1010.49
2018-07-11T06:25:09.865Z,1010.58
2018-07-11T06:26:09.853Z,1010.69
2018-07-11T06:27:09.845Z,1010.74
2018-07-11T06:28:09.941Z,1010.61
2018-07-11T06:29:09.814Z,1010.60
2018-07-11T06:30:09.801Z,1010.58
2018-07-11T06:31:09.794Z,1010.62
2018-07-11T06:32:09.778Z,1010.58
2018-07-11T06:33:09.762Z,1010.59
2018-07-11T06:34:09.758Z,1010.59
2018-07-11T06:35:09.739Z,1010.54
2018-07-11T06:36:09.736Z,1010.59
2018-07-11T06:37:09.714Z,1010.63
2018-07-11T06:38:09.701Z,1010.55
2018-07-11T06:39:09.694Z,1010.62
2018-07-11T06:40:09.678Z,1010.59
2018-07-11T06:41:09.665Z,1010.55
2018-07-11T06:42:09.659Z,1010.61
2018-07-11T06:43:09.643Z,1010.61
2018-07-11T06:44:09.626Z,1010.62
2018-07-11T06:45:09.613Z,1010.60
2018-07-11T06:46:09.601Z,1010.64
2018-07-11T06:47:09.589Z,1010.66
2018-07-11T06:48:09.576Z,1010.64
2018-07-11T06:49:09.563Z,1010.65
2018-07-11T06:50:09.555Z,1010.86
2018-07-11T06:51:09.540Z,1010.75
2018-07-11T06:52:09.606Z,1010.63
2018-07-11T06:53:09.512Z,1010.63
2018-07-11T06:54:09.501Z,1010.63
2018-07-11T06:55:09.488Z,1010.62
2018-07-11T06:56:09.527Z,1010.61
2018-07-11T06:57:09.463Z,1010.62
2018-07-11T06:58:09.450Z,1010.65
2018-07-11T06:59:09.438Z,1010.75
2018-07-11T07:00:09.429Z,1010.65
2018-07-11T07:01:09.413Z,1010.62
2018-07-11T07:02:09.405Z,1010.61
2018-07-11T07:03:09.387Z,1010.69
2018-07-11T07:04:09.381Z,1010.78
2018-07-11T07:05:09.364Z,1010.83
2018-07-11T07:06:09.354Z,1010.84
2018-07-11T07:07:09.344Z,1010.79
2018-07-11T07:08:09.326Z,1010.90
2018-07-11T07:09:09.318Z,1010.93
2018-07-11T07:10:09.302Z,1010.86
2018-07-11T07:11:09.293Z,1010.87
2018-07-11T07:12:09.289Z,1010.82
2018-07-11T07:13:09.266Z,1010.89
2018-07-11T07:14:09.253Z,1010.81
2018-07-11T07:15:09.247Z,1010.86
2018-07-11T07:16:09.229Z,1010.80
2018-07-11T07:17:09.217Z,1010.84
2018-07-11T07:18:09.210Z,1010.81
2018-07-11T07:19:09.193Z,1010.87
2018-07-11T07:20:09.180Z,1010.82
2018-07-11T07:21:09.167Z,1010.86
2018-07-11T07:22:09.156Z,1010.81
2018-07-11T07:23:09.147Z,1010.84
2018-07-11T07:24:09.141Z,1010.78
2018-07-11T07:25:09.121Z,1010.90
2018-07-11T07:26:09.112Z,1010.67
2018-07-11T07:27:09.096Z,1010.64
2018-07-11T07:28:09.086Z,1010.65
2018-07-11T07:29:09.211Z,1010.51
2018-07-11T07:30:09.062Z,1010.42
2018-07-11T07:31:09.052Z,1010.46
2018-07-11T07:32:09.038Z,1010.51
2018-07-11T07:33:09.032Z,1010.48
2018-07-11T07:34:09.014Z,1010.59
2018-07-11T07:35:09.003Z,1010.69
2018-07-11T07:36:09.042Z,1010.66
2018-07-11T07:37:08.977Z,1010.59
2018-07-11T07:38:08.966Z,1010.48
2018-07-11T07:39:08.956Z,1010.46
2018-07-11T07:40:08.942Z,1010.45
2018-07-11T07:41:08.932Z,1010.46
2018-07-11T07:42:08.921Z,1010.49
2018-07-11T07:43:08.906Z,1010.46
2018-07-11T07:44:08.894Z,1010.42
2018-07-11T07:45:08.882Z,1010.42
2018-07-11T07:46:08.870Z,1010.48
2018-07-11T07:47:08.894Z,1010.59
2018-07-11T07:48:08.848Z,1010.59
2018-07-11T07:49:08.835Z,1010.61
2018-07-11T07:50:08.823Z,1010.60
2018-07-11T07:51:08.810Z,1010.53
2018-07-11T07:52:08.800Z,1010.61
2018-07-11T07:53:08.788Z,1010.59
2018-07-11T07:54:08.777Z,1010.47
2018-07-11T07:55:08.764Z,1010.45
2018-07-11T07:56:08.754Z,1010.43
2018-07-11T07:57:08.746Z,1010.46
2018-07-11T07:58:08.735Z,1010.50
2018-07-11T07:59:08.725Z,1010.55
2018-07-11T08:00:08.707Z,1010.51
2018-07-11T08:01:08.695Z,1010.80
2018-07-11T08:02:08.685Z,1010.71
2018-07-11T08:03:08.677Z,1010.63
2018-07-11T08:04:08.661Z,1010.68
2018-07-11T08:05:08.656Z,1010.68
2018-07-11T08:06:08.638Z,1010.83
2018-07-11T08:07:08.630Z,1010.75
2018-07-11T08:08:08.616Z,1011.02
2018-07-11T08:09:08.603Z,1011.21
2018-07-11T08:10:08.594Z,1011.04
2018-07-11T08:11:08.584Z,1010.81
2018-07-11T08:12:08.573Z,1010.89
2018-07-11T08:13:08.562Z,1014.39
2018-07-11T08:14:08.551Z,1012.94
2018-07-11T08:15:08.540Z,1011.37
2018-07-11T08:16:08.533Z,1012.44
2018-07-11T08:17:08.517Z,1012.93
2018-07-11T08:18:08.508Z,1011.18
2018-07-11T08:19:08.500Z,1010.91
2018-07-11T08:20:08.489Z,1010.95
2018-07-11T08:21:08.482Z,1011.15
2018-07-11T08:22:08.472Z,1011.77
2018-07-11T08:23:08.462Z,1010.99
2018-07-11T08:24:08.453Z,1010.92
2018-07-11T08:25:08.445Z,1010.92
2018-07-11T08:26:08.437Z,1010.81
2018-07-11T08:27:08.494Z,1010.82
2018-07-11T08:28:08.422Z,1010.76
2018-07-11T08:29:08.409Z,1010.77
2018-07-11T08:30:08.401Z,1010.75
2018-07-11T08:31:08.395Z,1010.72
2018-07-11T08:32:08.385Z,1010.70
2018-07-11T08:33:08.376Z,1010.78
2018-07-11T08:34:08.367Z,1010.83
2018-07-11T08:35:08.469Z,1010.90
2018-07-11T08:36:08.350Z,1010.97
2018-07-11T08:37:08.340Z,1011.16
2018-07-11T08:38:08.331Z,1011.73
2018-07-11T08:39:08.330Z,1011.65
2018-07-11T08:40:08.315Z,1011.71
2018-07-11T08:41:08.311Z,1011.70
2018-07-11T08:42:08.308Z,1011.69
2018-07-11T08:43:08.300Z,1011.36
2018-07-11T08:44:08.286Z,1010.95
2018-07-11T08:45:08.277Z,1011.05
2018-07-11T08:46:08.269Z,1010.75
2018-07-11T08:47:08.263Z,1010.76
2018-07-11T08:48:08.308Z,1011.13
2018-07-11T08:49:08.248Z,1010.85
2018-07-11T08:50:08.244Z,1010.76
2018-07-11T08:51:08.238Z,1010.74
2018-07-11T08:52:08.235Z,1010.73
2018-07-11T08:53:08.232Z,1010.72
2018-07-11T08:54:08.221Z,1010.69
2018-07-11T08:55:08.268Z,1010.69
2018-07-11T08:56:08.207Z,1010.69
2018-07-11T08:57:08.197Z,1010.67
2018-07-11T08:58:08.191Z,1010.68
2018-07-11T08:59:08.185Z,1010.72
2018-07-11T09:00:08.178Z,1010.77
2018-07-11T09:01:08.170Z,1010.79
2018-07-11T09:02:08.164Z,1010.81
2018-07-11T09:03:08.161Z,1010.79
2018-07-11T09:04:08.151Z,1010.81
2018-07-11T09:05:08.146Z,1010.86
2018-07-11T09:06:08.138Z,1010.89
2018-07-11T09:07:08.133Z,1010.94
2018-07-11T09:08:08.122Z,1010.96
2018-07-11T09:09:08.113Z,1011.19
2018-07-11T09:10:08.108Z,1011.39
2018-07-11T09:11:08.109Z,1011.47
2018-07-11T09:12:08.097Z,1011.40
2018-07-11T09:13:08.088Z,1011.35
2018-07-11T09:14:08.080Z,1011.79
2018-07-11T09:15:08.074Z,1011.27
2018-07-11T09:16:08.073Z,1011.60
2018-07-11T09:17:08.070Z,1012.07
2018-07-11T09:18:08.057Z,1011.96
2018-07-11T09:19:08.052Z,1011.72
2018-07-11T09:20:08.044Z,1011.95
2018-07-11T09:21:08.036Z,1011.86
2018-07-11T09:22:08.033Z,1011.24
2018-07-11T09:23:08.027Z,1011.16
2018-07-11T09:24:08.076Z,1012.05
2018-07-11T09:26:08.013Z,1011.74
2018-07-11T09:27:08.006Z,1011.71
2018-07-11T09:28:08.002Z,1011.81
2018-07-11T09:29:07.993Z,1012.30
2018-07-11T09:30:07.990Z,1012.77
2018-07-11T09:31:07.986Z,1012.22
2018-07-11T09:32:07.981Z,1012.25
2018-07-11T09:33:07.978Z,1012.57
2018-07-11T09:34:07.971Z,1012.41
2018-07-11T09:35:07.976Z,1011.43
2018-07-11T09:36:07.965Z,1011.46
2018-07-11T09:37:07.960Z,1011.36
2018-07-11T09:38:07.955Z,1011.35
2018-07-11T09:39:07.954Z,1011.20
2018-07-11T09:40:07.951Z,1011.27
2018-07-11T09:41:07.944Z,1011.13
2018-07-11T09:42:07.942Z,1011.07
2018-07-11T09:43:07.937Z,1010.99
2018-07-11T09:44:07.934Z,1010.90
2018-07-11T09:45:07.932Z,1010.84
2018-07-11T09:46:07.928Z,1010.90
2018-07-11T09:47:07.924Z,1010.92
2018-07-11T09:48:07.922Z,1010.90
2018-07-11T09:49:07.916Z,1010.86
2018-07-11T09:50:07.912Z,1010.93
2018-07-11T09:51:07.909Z,1010.84
2018-07-11T09:52:07.961Z,1010.85
2018-07-11T09:53:07.902Z,1010.86
2018-07-11T09:54:07.900Z,1010.83
2018-07-11T09:55:07.893Z,1010.82
2018-07-11T09:56:07.890Z,1010.82
2018-07-11T09:57:07.892Z,1010.92
2018-07-11T09:58:07.882Z,1010.84
2018-07-11T09:59:07.884Z,1010.85
2018-07-11T10:00:07.874Z,1010.88
2018-07-11T10:01:07.870Z,1010.82
2018-07-11T10:02:07.872Z,1010.85
2018-07-11T10:03:07.864Z,1010.87
2018-07-11T10:04:07.853Z,1010.87
2018-07-11T10:05:07.888Z,1010.91
2018-07-11T10:06:07.844Z,1010.89
2018-07-11T10:07:07.840Z,1010.86
2018-07-11T10:08:07.839Z,1010.87
2018-07-11T10:09:07.835Z,1010.93
2018-07-11T10:10:07.826Z,1010.85
2018-07-11T10:11:07.827Z,1011.00
2018-07-11T10:12:07.815Z,1011.13
2018-07-11T10:13:07.810Z,1011.03
2018-07-11T10:14:07.810Z,1011.15
2018-07-11T10:15:07.802Z,1010.95
2018-07-11T10:16:07.800Z,1010.94
2018-07-11T10:17:07.792Z,1010.90
2018-07-11T10:18:07.788Z,1010.91
2018-07-11T10:19:07.785Z,1010.97
2018-07-11T10:20:07.781Z,1010.98
2018-07-11T10:21:07.776Z,1011.06
2018-07-11T10:22:07.775Z,1011.10
2018-07-11T10:23:07.777Z,1011.10
2018-07-11T10:24:07.764Z,1010.92
2018-07-11T10:25:07.760Z,1010.98
2018-07-11T10:26:07.757Z,1010.79
2018-07-11T10:27:07.753Z,1010.77
2018-07-11T10:28:07.765Z,1010.82
2018-07-11T10:29:07.748Z,1010.95
2018-07-11T10:30:07.747Z,1010.97
2018-07-11T10:31:07.741Z,1010.93
2018-07-11T10:32:07.739Z,1010.86
2018-07-11T10:33:07.742Z,1010.89
2018-07-11T10:34:07.733Z,1010.77
2018-07-11T10:35:07.727Z,1010.82
2018-07-11T10:36:07.724Z,1010.88
2018-07-11T10:37:07.722Z,1010.88
2018-07-11T10:38:07.720Z,1010.87
2018-07-11T10:39:07.777Z,1010.75
2018-07-11T10:40:07.712Z,1010.63
2018-07-11T10:41:07.710Z,1010.61
2018-07-11T10:42:07.710Z,1010.69
2018-07-11T10:43:07.706Z,1010.77
2018-07-11T10:44:07.703Z,1010.84
2018-07-11T10:45:07.699Z,1010.78
2018-07-11T10:46:07.700Z,1010.82
2018-07-11T10:47:07.702Z,1010.79
2018-07-11T10:48:07.693Z,1010.82
2018-07-11T10:49:07.694Z,1010.71
2018-07-11T10:50:07.687Z,1010.81
2018-07-11T10:51:07.687Z,1010.79
2018-07-11T10:52:07.685Z,1010.72
2018-07-11T10:53:07.680Z,1010.68
2018-07-11T10:54:07.780Z,1010.53
2018-07-11T10:55:08.083Z,1010.55
2018-07-11T10:56:07.676Z,1010.55
2018-07-11T10:57:07.672Z,1010.47
2018-07-11T10:58:07.671Z,1010.44
2018-07-11T10:59:07.670Z,1010.41
2018-07-11T11:00:07.679Z,1010.41
2018-07-11T11:01:07.701Z,1010.42
2018-07-11T11:02:07.661Z,1010.42
2018-07-11T11:03:07.663Z,1010.49
2018-07-11T11:04:07.655Z,1010.44
2018-07-11T11:05:07.657Z,1010.47
2018-07-11T11:06:07.649Z,1010.55
2018-07-11T11:07:07.648Z,1010.76
2018-07-11T11:08:07.743Z,1010.60
2018-07-11T11:09:07.641Z,1010.76
2018-07-11T11:10:07.638Z,1010.75
2018-07-11T11:11:07.639Z,1010.70
2018-07-11T11:12:07.642Z,1010.81
2018-07-11T11:13:07.639Z,1010.86
2018-07-11T11:14:07.638Z,1010.71
2018-07-11T11:15:07.629Z,1010.75
2018-07-11T11:16:07.623Z,1010.55
2018-07-11T11:17:07.621Z,1010.71
2018-07-11T11:18:07.617Z,1011.22
2018-07-11T11:19:07.616Z,1010.46
2018-07-11T11:20:07.614Z,1010.54
2018-07-11T11:21:07.619Z,1010.73
2018-07-11T11:22:07.610Z,1010.45
2018-07-11T11:23:07.609Z,1010.60
2018-07-11T11:24:07.607Z,1010.52
2018-07-11T11:25:07.626Z,1011.15
2018-07-11T11:26:07.602Z,1010.74
2018-07-11T11:27:07.600Z,1010.46
2018-07-11T11:28:07.601Z,1010.75
2018-07-11T11:29:07.595Z,1010.51
2018-07-11T11:30:07.595Z,1010.94
2018-07-11T11:31:07.591Z,1010.52
2018-07-11T11:32:07.591Z,1010.81
2018-07-11T11:33:07.589Z,1010.60
2018-07-11T11:34:07.586Z,1010.58
2018-07-11T11:35:07.584Z,1010.83
2018-07-11T11:36:07.582Z,1010.48
2018-07-11T11:37:07.585Z,1010.53
2018-07-11T11:38:07.578Z,1010.58
2018-07-11T11:39:07.576Z,1010.52
2018-07-11T11:40:07.578Z,1010.40
2018-07-11T11:41:07.576Z,1010.44
2018-07-11T11:42:07.749Z,1010.53
2018-07-11T11:43:07.570Z,1010.50
2018-07-11T11:44:07.571Z,1010.48
2018-07-11T11:45:07.568Z,1010.94
2018-07-11T11:46:07.571Z,1010.43
2018-07-11T11:47:07.562Z,1010.41
2018-07-11T11:48:07.561Z,1010.47
2018-07-11T11:49:07.556Z,1010.41
2018-07-11T11:50:07.554Z,1011.00
2018-07-11T11:51:07.554Z,1011.00
2018-07-11T11:52:07.552Z,1011.05
2018-07-11T11:53:07.548Z,1010.92
2018-07-11T11:54:07.547Z,1010.92
2018-07-11T11:55:07.551Z,1010.91
2018-07-11T11:56:07.546Z,1010.95
2018-07-11T11:57:07.545Z,1010.92
2018-07-11T11:58:07.543Z,1010.93
2018-07-11T11:59:07.542Z,1010.96
2018-07-11T12:00:07.544Z,1010.91
2018-07-11T12:01:07.537Z,1010.66
2018-07-11T12:02:07.537Z,1010.41
2018-07-11T12:03:07.535Z,1010.20
2018-07-11T12:04:07.534Z,1010.30
2018-07-11T12:05:07.536Z,1010.31
2018-07-11T12:06:07.533Z,1010.16
2018-07-11T12:07:07.544Z,1010.17
2018-07-11T12:08:07.527Z,1010.16
2018-07-11T12:09:07.526Z,1010.26
2018-07-11T12:10:07.527Z,1010.15
2018-07-11T12:11:07.527Z,1010.17
2018-07-11T12:12:07.522Z,1010.24